sensor_id;sensor_type;location;lat;lon;timestamp;P1;durP1;ratioP1;P2;durP2;ratioP2
27802;SDS011;15182;48.174;11.562;2023-11-18T00:01:37;5.50;;;5.30;;
27802;SDS011;15182;48.174;11.562;2023-11-18T00:04:06;6.27;;;6.00;;
27802;SDS011;15182;48.174;11.562;2023-11-18T00:06:42;5.90;;;5.60;;
27802;SDS011;15182;48.174;11.562;2023-11-18T00:09:10;5.93;;;5.63;;
27802;SDS011;15182;48.174;11.562;2023-11-18T00:11:40;6.03;;;5.70;;
27802;SDS011;15182;48.174;11.562;2023-11-18T00:14:09;6.43;;;6.13;;
27802;SDS011;15182;48.174;11.562;2023-11-18T00:16:37;6.20;;;5.80;;
27802;SDS011;15182;48.174;11.562;2023-11-18T00:19:05;5.80;;;5.50;;
27802;SDS011;15182;48.174;11.562;2023-11-18T00:21:34;5.97;;;5.67;;
27802;SDS011;15182;48.174;11.562;2023-11-18T00:24:04;6.37;;;6.07;;
27802;SDS011;15182;48.174;11.562;2023-11-18T00:26:33;6.37;;;6.07;;
27802;SDS011;15182;48.174;11.562;2023-11-18T00:29:02;6.57;;;6.00;;
27802;SDS011;15182;48.174;11.562;2023-11-18T00:31:31;6.40;;;6.10;;
27802;SDS011;15182;48.174;11.562;2023-11-18T00:33:58;5.50;;;5.37;;
27802;SDS011;15182;48.174;11.562;2023-11-18T00:36:26;6.40;;;6.10;;
27802;SDS011;15182;48.174;11.562;2023-11-18T00:38:55;6.10;;;5.90;;
27802;SDS011;15182;48.174;11.562;2023-11-18T00:41:24;5.53;;;5.33;;
27802;SDS011;15182;48.174;11.562;2023-11-18T00:43:52;5.50;;;5.30;;
27802;SDS011;15182;48.174;11.562;2023-11-18T00:46:20;5.93;;;5.63;;
27802;SDS011;15182;48.174;11.562;2023-11-18T00:48:48;5.90;;;5.60;;
27802;SDS011;15182;48.174;11.562;2023-11-18T00:51:16;4.97;;;4.87;;
27802;SDS011;15182;48.174;11.562;2023-11-18T00:53:44;5.00;;;4.90;;
27802;SDS011;15182;48.174;11.562;2023-11-18T00:56:13;5.53;;;5.33;;
27802;SDS011;15182;48.174;11.562;2023-11-18T00:58:45;4.83;;;4.73;;
27802;SDS011;15182;48.174;11.562;2023-11-18T01:01:13;5.03;;;4.90;;
27802;SDS011;15182;48.174;11.562;2023-11-18T01:03:43;4.93;;;4.73;;
27802;SDS011;15182;48.174;11.562;2023-11-18T01:06:11;4.87;;;4.70;;
27802;SDS011;15182;48.174;11.562;2023-11-18T01:08:43;5.20;;;5.10;;
27802;SDS011;15182;48.174;11.562;2023-11-18T01:11:11;4.40;;;4.20;;
27802;SDS011;15182;48.174;11.562;2023-11-18T01:13:46;4.27;;;4.17;;
27802;SDS011;15182;48.174;11.562;2023-11-18T01:16:14;3.93;;;3.93;;
27802;SDS011;15182;48.174;11.562;2023-11-18T01:18:42;4.03;;;4.03;;
27802;SDS011;15182;48.174;11.562;2023-11-18T01:21:11;3.63;;;3.63;;
27802;SDS011;15182;48.174;11.562;2023-11-18T01:23:39;4.47;;;4.37;;
27802;SDS011;15182;48.174;11.562;2023-11-18T01:26:10;4.33;;;4.23;;
27802;SDS011;15182;48.174;11.562;2023-11-18T01:28:39;4.47;;;4.37;;
27802;SDS011;15182;48.174;11.562;2023-11-18T01:31:10;4.27;;;4.17;;
27802;SDS011;15182;48.174;11.562;2023-11-18T01:33:39;3.93;;;3.83;;
27802;SDS011;15182;48.174;11.562;2023-11-18T01:36:08;3.77;;;3.67;;
27802;SDS011;15182;48.174;11.562;2023-11-18T01:38:36;4.50;;;4.40;;
27802;SDS011;15182;48.174;11.562;2023-11-18T01:41:05;3.77;;;3.77;;
27802;SDS011;15182;48.174;11.562;2023-11-18T01:43:35;3.40;;;3.40;;
27802;SDS011;15182;48.174;11.562;2023-11-18T01:46:03;4.23;;;4.13;;
27802;SDS011;15182;48.174;11.562;2023-11-18T01:48:37;4.13;;;4.03;;
27802;SDS011;15182;48.174;11.562;2023-11-18T01:51:08;3.60;;;3.60;;
27802;SDS011;15182;48.174;11.562;2023-11-18T01:53:37;3.80;;;3.80;;
27802;SDS011;15182;48.174;11.562;2023-11-18T01:56:07;4.07;;;3.83;;
27802;SDS011;15182;48.174;11.562;2023-11-18T01:58:36;3.57;;;3.57;;
27802;SDS011;15182;48.174;11.562;2023-11-18T02:01:06;4.00;;;4.00;;
27802;SDS011;15182;48.174;11.562;2023-11-18T02:03:36;3.60;;;3.50;;
27802;SDS011;15182;48.174;11.562;2023-11-18T02:06:08;3.73;;;3.73;;
27802;SDS011;15182;48.174;11.562;2023-11-18T02:08:36;3.80;;;3.60;;
27802;SDS011;15182;48.174;11.562;2023-11-18T02:11:05;3.80;;;3.80;;
27802;SDS011;15182;48.174;11.562;2023-11-18T02:13:46;3.57;;;3.47;;
27802;SDS011;15182;48.174;11.562;2023-11-18T02:16:17;3.73;;;3.63;;
27802;SDS011;15182;48.174;11.562;2023-11-18T02:18:48;3.43;;;3.33;;
27802;SDS011;15182;48.174;11.562;2023-11-18T02:21:19;3.90;;;3.90;;
27802;SDS011;15182;48.174;11.562;2023-11-18T02:23:49;3.47;;;3.47;;
27802;SDS011;15182;48.174;11.562;2023-11-18T02:26:22;3.50;;;3.50;;
27802;SDS011;15182;48.174;11.562;2023-11-18T02:28:50;4.20;;;4.10;;
27802;SDS011;15182;48.174;11.562;2023-11-18T02:31:20;3.57;;;3.57;;
27802;SDS011;15182;48.174;11.562;2023-11-18T02:33:59;4.00;;;3.80;;
27802;SDS011;15182;48.174;11.562;2023-11-18T02:36:36;3.70;;;3.70;;
27802;SDS011;15182;48.174;11.562;2023-11-18T02:39:12;3.87;;;3.77;;
27802;SDS011;15182;48.174;11.562;2023-11-18T02:41:51;3.87;;;3.67;;
27802;SDS011;15182;48.174;11.562;2023-11-18T02:44:19;3.60;;;3.60;;
27802;SDS011;15182;48.174;11.562;2023-11-18T02:46:51;3.93;;;3.90;;
27802;SDS011;15182;48.174;11.562;2023-11-18T02:49:19;4.07;;;4.03;;
27802;SDS011;15182;48.174;11.562;2023-11-18T02:51:47;4.00;;;3.90;;
27802;SDS011;15182;48.174;11.562;2023-11-18T02:54:14;3.87;;;3.77;;
27802;SDS011;15182;48.174;11.562;2023-11-18T02:56:42;4.00;;;3.90;;
27802;SDS011;15182;48.174;11.562;2023-11-18T02:59:11;3.87;;;3.77;;
27802;SDS011;15182;48.174;11.562;2023-11-18T03:01:39;3.97;;;3.87;;
27802;SDS011;15182;48.174;11.562;2023-11-18T03:04:07;4.70;;;4.30;;
27802;SDS011;15182;48.174;11.562;2023-11-18T03:06:35;4.00;;;4.00;;
27802;SDS011;15182;48.174;11.562;2023-11-18T03:09:03;3.83;;;3.83;;
27802;SDS011;15182;48.174;11.562;2023-11-18T03:11:33;3.67;;;3.67;;
27802;SDS011;15182;48.174;11.562;2023-11-18T03:14:01;3.70;;;3.60;;
27802;SDS011;15182;48.174;11.562;2023-11-18T03:16:32;3.77;;;3.77;;
27802;SDS011;15182;48.174;11.562;2023-11-18T03:18:59;3.70;;;3.70;;
27802;SDS011;15182;48.174;11.562;2023-11-18T03:21:27;4.07;;;3.97;;
27802;SDS011;15182;48.174;11.562;2023-11-18T03:23:55;4.33;;;4.23;;
27802;SDS011;15182;48.174;11.562;2023-11-18T03:26:24;4.07;;;3.97;;
27802;SDS011;15182;48.174;11.562;2023-11-18T03:28:53;4.00;;;3.90;;
27802;SDS011;15182;48.174;11.562;2023-11-18T03:31:21;3.50;;;3.50;;
27802;SDS011;15182;48.174;11.562;2023-11-18T03:33:50;3.70;;;3.50;;
27802;SDS011;15182;48.174;11.562;2023-11-18T03:36:18;3.80;;;3.80;;
27802;SDS011;15182;48.174;11.562;2023-11-18T03:38:46;3.93;;;3.93;;
27802;SDS011;15182;48.174;11.562;2023-11-18T03:41:15;4.20;;;4.10;;
27802;SDS011;15182;48.174;11.562;2023-11-18T03:43:43;3.80;;;3.80;;
27802;SDS011;15182;48.174;11.562;2023-11-18T03:46:11;4.03;;;4.03;;
27802;SDS011;15182;48.174;11.562;2023-11-18T03:48:39;4.53;;;4.43;;
27802;SDS011;15182;48.174;11.562;2023-11-18T03:51:08;4.30;;;4.30;;
27802;SDS011;15182;48.174;11.562;2023-11-18T03:53:36;3.80;;;3.80;;
27802;SDS011;15182;48.174;11.562;2023-11-18T03:56:04;3.97;;;3.97;;
27802;SDS011;15182;48.174;11.562;2023-11-18T03:58:32;4.13;;;4.03;;
27802;SDS011;15182;48.174;11.562;2023-11-18T04:01:01;3.60;;;3.50;;
27802;SDS011;15182;48.174;11.562;2023-11-18T04:03:29;4.43;;;4.33;;
27802;SDS011;15182;48.174;11.562;2023-11-18T04:05:57;4.57;;;4.47;;
27802;SDS011;15182;48.174;11.562;2023-11-18T04:08:27;4.77;;;4.47;;
27802;SDS011;15182;48.174;11.562;2023-11-18T04:10:54;4.70;;;4.60;;
27802;SDS011;15182;48.174;11.562;2023-11-18T04:13:22;4.50;;;4.40;;
27802;SDS011;15182;48.174;11.562;2023-11-18T04:15:50;4.57;;;4.47;;
27802;SDS011;15182;48.174;11.562;2023-11-18T04:18:18;4.57;;;4.47;;
27802;SDS011;15182;48.174;11.562;2023-11-18T04:20:47;5.00;;;4.90;;
27802;SDS011;15182;48.174;11.562;2023-11-18T04:23:15;5.00;;;4.80;;
27802;SDS011;15182;48.174;11.562;2023-11-18T04:25:44;4.37;;;4.27;;
27802;SDS011;15182;48.174;11.562;2023-11-18T04:28:12;4.70;;;4.60;;
27802;SDS011;15182;48.174;11.562;2023-11-18T04:30:39;4.57;;;4.47;;
27802;SDS011;15182;48.174;11.562;2023-11-18T04:33:07;4.63;;;4.43;;
27802;SDS011;15182;48.174;11.562;2023-11-18T04:35:35;5.07;;;4.97;;
27802;SDS011;15182;48.174;11.562;2023-11-18T04:38:03;4.80;;;4.60;;
27802;SDS011;15182;48.174;11.562;2023-11-18T04:40:31;4.73;;;4.63;;
27802;SDS011;15182;48.174;11.562;2023-11-18T04:43:02;4.73;;;4.60;;
27802;SDS011;15182;48.174;11.562;2023-11-18T04:45:30;4.93;;;4.73;;
27802;SDS011;15182;48.174;11.562;2023-11-18T04:47:58;5.10;;;5.00;;
27802;SDS011;15182;48.174;11.562;2023-11-18T04:50:26;5.17;;;4.87;;
27802;SDS011;15182;48.174;11.562;2023-11-18T04:52:54;4.73;;;4.63;;
27802;SDS011;15182;48.174;11.562;2023-11-18T04:55:22;4.80;;;4.70;;
27802;SDS011;15182;48.174;11.562;2023-11-18T04:57:51;5.10;;;4.90;;
27802;SDS011;15182;48.174;11.562;2023-11-18T05:00:22;4.43;;;4.33;;
27802;SDS011;15182;48.174;11.562;2023-11-18T05:02:50;5.20;;;5.00;;
27802;SDS011;15182;48.174;11.562;2023-11-18T05:05:18;5.10;;;4.90;;
27802;SDS011;15182;48.174;11.562;2023-11-18T05:07:47;4.60;;;4.50;;
27802;SDS011;15182;48.174;11.562;2023-11-18T05:10:15;5.03;;;4.93;;
27802;SDS011;15182;48.174;11.562;2023-11-18T05:12:44;5.13;;;4.83;;
27802;SDS011;15182;48.174;11.562;2023-11-18T05:15:22;4.53;;;4.43;;
27802;SDS011;15182;48.174;11.562;2023-11-18T05:17:50;5.10;;;4.80;;
27802;SDS011;15182;48.174;11.562;2023-11-18T05:20:19;4.73;;;4.60;;
27802;SDS011;15182;48.174;11.562;2023-11-18T05:22:48;4.80;;;4.70;;
27802;SDS011;15182;48.174;11.562;2023-11-18T05:25:16;4.43;;;4.33;;
27802;SDS011;15182;48.174;11.562;2023-11-18T05:27:43;4.67;;;4.57;;
27802;SDS011;15182;48.174;11.562;2023-11-18T05:30:11;4.90;;;4.80;;
27802;SDS011;15182;48.174;11.562;2023-11-18T05:32:41;5.10;;;5.00;;
27802;SDS011;15182;48.174;11.562;2023-11-18T05:35:09;4.57;;;4.47;;
27802;SDS011;15182;48.174;11.562;2023-11-18T05:37:38;4.83;;;4.73;;
27802;SDS011;15182;48.174;11.562;2023-11-18T05:40:07;4.57;;;4.37;;
27802;SDS011;15182;48.174;11.562;2023-11-18T05:42:37;4.73;;;4.63;;
27802;SDS011;15182;48.174;11.562;2023-11-18T05:45:07;4.43;;;4.33;;
27802;SDS011;15182;48.174;11.562;2023-11-18T05:47:44;4.30;;;4.20;;
27802;SDS011;15182;48.174;11.562;2023-11-18T05:50:12;4.53;;;4.43;;
27802;SDS011;15182;48.174;11.562;2023-11-18T05:52:41;4.83;;;4.73;;
27802;SDS011;15182;48.174;11.562;2023-11-18T05:55:09;4.80;;;4.70;;
27802;SDS011;15182;48.174;11.562;2023-11-18T05:57:37;5.27;;;5.17;;
27802;SDS011;15182;48.174;11.562;2023-11-18T06:00:05;5.03;;;4.80;;
27802;SDS011;15182;48.174;11.562;2023-11-18T06:02:38;5.13;;;4.77;;
27802;SDS011;15182;48.174;11.562;2023-11-18T06:05:08;4.87;;;4.63;;
27802;SDS011;15182;48.174;11.562;2023-11-18T06:07:38;5.10;;;4.80;;
27802;SDS011;15182;48.174;11.562;2023-11-18T06:10:09;5.63;;;5.43;;
27802;SDS011;15182;48.174;11.562;2023-11-18T06:12:38;5.77;;;5.37;;
27802;SDS011;15182;48.174;11.562;2023-11-18T06:15:07;4.83;;;4.63;;
27802;SDS011;15182;48.174;11.562;2023-11-18T06:17:40;5.20;;;4.83;;
27802;SDS011;15182;48.174;11.562;2023-11-18T06:20:13;4.37;;;4.27;;
27802;SDS011;15182;48.174;11.562;2023-11-18T06:22:42;5.00;;;4.90;;
27802;SDS011;15182;48.174;11.562;2023-11-18T06:25:10;5.10;;;4.90;;
27802;SDS011;15182;48.174;11.562;2023-11-18T06:27:38;5.07;;;4.87;;
27802;SDS011;15182;48.174;11.562;2023-11-18T06:30:06;4.90;;;4.80;;
27802;SDS011;15182;48.174;11.562;2023-11-18T06:32:37;5.10;;;5.00;;
27802;SDS011;15182;48.174;11.562;2023-11-18T06:35:06;5.43;;;5.07;;
27802;SDS011;15182;48.174;11.562;2023-11-18T06:37:36;5.83;;;5.40;;
27802;SDS011;15182;48.174;11.562;2023-11-18T06:40:04;5.03;;;4.83;;
27802;SDS011;15182;48.174;11.562;2023-11-18T06:42:42;5.10;;;4.83;;
27802;SDS011;15182;48.174;11.562;2023-11-18T06:45:12;5.33;;;5.17;;
27802;SDS011;15182;48.174;11.562;2023-11-18T06:47:40;5.17;;;5.07;;
27802;SDS011;15182;48.174;11.562;2023-11-18T06:50:10;5.27;;;5.07;;
27802;SDS011;15182;48.174;11.562;2023-11-18T06:52:41;5.07;;;4.87;;
27802;SDS011;15182;48.174;11.562;2023-11-18T06:55:09;5.47;;;5.27;;
27802;SDS011;15182;48.174;11.562;2023-11-18T06:57:37;5.27;;;4.93;;
27802;SDS011;15182;48.174;11.562;2023-11-18T07:00:06;4.83;;;4.73;;
27802;SDS011;15182;48.174;11.562;2023-11-18T07:02:35;5.73;;;5.27;;
27802;SDS011;15182;48.174;11.562;2023-11-18T07:05:03;4.73;;;4.53;;
27802;SDS011;15182;48.174;11.562;2023-11-18T07:07:32;5.00;;;4.90;;
27802;SDS011;15182;48.174;11.562;2023-11-18T07:10:01;4.70;;;4.60;;
27802;SDS011;15182;48.174;11.562;2023-11-18T07:12:31;5.20;;;5.00;;
27802;SDS011;15182;48.174;11.562;2023-11-18T07:15:03;5.63;;;5.10;;
27802;SDS011;15182;48.174;11.562;2023-11-18T07:17:32;5.00;;;4.80;;
27802;SDS011;15182;48.174;11.562;2023-11-18T07:20:01;5.23;;;5.03;;
27802;SDS011;15182;48.174;11.562;2023-11-18T07:22:31;4.97;;;4.83;;
27802;SDS011;15182;48.174;11.562;2023-11-18T07:25:02;5.63;;;5.43;;
27802;SDS011;15182;48.174;11.562;2023-11-18T07:27:33;5.53;;;5.30;;
27802;SDS011;15182;48.174;11.562;2023-11-18T07:30:02;5.10;;;5.00;;
27802;SDS011;15182;48.174;11.562;2023-11-18T07:32:36;5.33;;;5.13;;
27802;SDS011;15182;48.174;11.562;2023-11-18T07:35:06;5.57;;;5.27;;
27802;SDS011;15182;48.174;11.562;2023-11-18T07:37:37;4.97;;;4.77;;
27802;SDS011;15182;48.174;11.562;2023-11-18T07:40:07;5.07;;;4.87;;
27802;SDS011;15182;48.174;11.562;2023-11-18T07:42:37;5.10;;;4.93;;
27802;SDS011;15182;48.174;11.562;2023-11-18T07:45:06;4.80;;;4.60;;
27802;SDS011;15182;48.174;11.562;2023-11-18T07:47:43;4.60;;;4.50;;
27802;SDS011;15182;48.174;11.562;2023-11-18T07:50:11;5.03;;;4.83;;
27802;SDS011;15182;48.174;11.562;2023-11-18T07:52:39;4.83;;;4.73;;
27802;SDS011;15182;48.174;11.562;2023-11-18T07:55:09;5.00;;;4.70;;
27802;SDS011;15182;48.174;11.562;2023-11-18T07:57:38;5.20;;;4.90;;
27802;SDS011;15182;48.174;11.562;2023-11-18T08:00:06;5.10;;;5.00;;
27802;SDS011;15182;48.174;11.562;2023-11-18T08:02:42;5.70;;;5.40;;
27802;SDS011;15182;48.174;11.562;2023-11-18T08:05:11;8.57;;;4.67;;
27802;SDS011;15182;48.174;11.562;2023-11-18T08:07:41;4.97;;;4.87;;
27802;SDS011;15182;48.174;11.562;2023-11-18T08:10:12;4.53;;;4.43;;
27802;SDS011;15182;48.174;11.562;2023-11-18T08:12:44;4.97;;;4.77;;
27802;SDS011;15182;48.174;11.562;2023-11-18T08:15:13;6.17;;;4.50;;
27802;SDS011;15182;48.174;11.562;2023-11-18T08:17:41;4.97;;;4.67;;
27802;SDS011;15182;48.174;11.562;2023-11-18T08:20:09;4.83;;;4.63;;
27802;SDS011;15182;48.174;11.562;2023-11-18T08:22:40;5.30;;;4.90;;
27802;SDS011;15182;48.174;11.562;2023-11-18T08:25:09;5.00;;;4.80;;
27802;SDS011;15182;48.174;11.562;2023-11-18T08:27:40;5.10;;;4.90;;
27802;SDS011;15182;48.174;11.562;2023-11-18T08:30:09;5.07;;;4.97;;
27802;SDS011;15182;48.174;11.562;2023-11-18T08:32:39;4.77;;;4.63;;
27802;SDS011;15182;48.174;11.562;2023-11-18T08:35:09;4.60;;;4.50;;
27802;SDS011;15182;48.174;11.562;2023-11-18T08:37:39;5.03;;;4.73;;
27802;SDS011;15182;48.174;11.562;2023-11-18T08:40:08;5.27;;;5.07;;
27802;SDS011;15182;48.174;11.562;2023-11-18T08:42:41;4.30;;;4.10;;
27802;SDS011;15182;48.174;11.562;2023-11-18T08:45:14;4.93;;;4.73;;
27802;SDS011;15182;48.174;11.562;2023-11-18T08:47:44;5.57;;;5.10;;
27802;SDS011;15182;48.174;11.562;2023-11-18T08:50:13;4.50;;;4.30;;
27802;SDS011;15182;48.174;11.562;2023-11-18T08:52:42;4.73;;;4.60;;
27802;SDS011;15182;48.174;11.562;2023-11-18T08:55:14;5.10;;;4.80;;
27802;SDS011;15182;48.174;11.562;2023-11-18T08:57:46;5.23;;;4.80;;
27802;SDS011;15182;48.174;11.562;2023-11-18T09:00:18;4.97;;;4.77;;
27802;SDS011;15182;48.174;11.562;2023-11-18T09:03:00;4.97;;;4.80;;
27802;SDS011;15182;48.174;11.562;2023-11-18T09:05:32;4.53;;;4.17;;
27802;SDS011;15182;48.174;11.562;2023-11-18T09:08:01;4.83;;;4.53;;
27802;SDS011;15182;48.174;11.562;2023-11-18T09:10:33;5.07;;;4.80;;
27802;SDS011;15182;48.174;11.562;2023-11-18T09:13:01;4.83;;;4.70;;
27802;SDS011;15182;48.174;11.562;2023-11-18T09:15:29;4.50;;;4.20;;
27802;SDS011;15182;48.174;11.562;2023-11-18T09:17:57;5.27;;;5.07;;
27802;SDS011;15182;48.174;11.562;2023-11-18T09:20:25;4.90;;;4.77;;
27802;SDS011;15182;48.174;11.562;2023-11-18T09:22:55;4.13;;;4.03;;
27802;SDS011;15182;48.174;11.562;2023-11-18T09:25:24;5.03;;;4.93;;
27802;SDS011;15182;48.174;11.562;2023-11-18T09:27:53;4.70;;;4.60;;
27802;SDS011;15182;48.174;11.562;2023-11-18T09:30:21;4.33;;;4.17;;
27802;SDS011;15182;48.174;11.562;2023-11-18T09:32:50;4.60;;;4.37;;
27802;SDS011;15182;48.174;11.562;2023-11-18T09:35:19;4.37;;;4.27;;
27802;SDS011;15182;48.174;11.562;2023-11-18T09:37:47;4.20;;;4.07;;
27802;SDS011;15182;48.174;11.562;2023-11-18T09:40:16;4.00;;;3.90;;
27802;SDS011;15182;48.174;11.562;2023-11-18T09:42:48;4.43;;;4.00;;
27802;SDS011;15182;48.174;11.562;2023-11-18T09:45:18;4.00;;;3.90;;
27802;SDS011;15182;48.174;11.562;2023-11-18T09:47:46;3.50;;;3.50;;
27802;SDS011;15182;48.174;11.562;2023-11-18T09:50:16;4.07;;;3.97;;
27802;SDS011;15182;48.174;11.562;2023-11-18T09:52:48;3.73;;;3.73;;
27802;SDS011;15182;48.174;11.562;2023-11-18T09:55:21;3.57;;;3.57;;
27802;SDS011;15182;48.174;11.562;2023-11-18T09:57:59;3.47;;;3.37;;
27802;SDS011;15182;48.174;11.562;2023-11-18T10:00:36;3.90;;;3.70;;
27802;SDS011;15182;48.174;11.562;2023-11-18T10:03:09;3.60;;;3.50;;
27802;SDS011;15182;48.174;11.562;2023-11-18T10:05:41;3.70;;;3.60;;
27802;SDS011;15182;48.174;11.562;2023-11-18T10:08:10;3.50;;;3.50;;
27802;SDS011;15182;48.174;11.562;2023-11-18T10:10:38;3.43;;;3.33;;
27802;SDS011;15182;48.174;11.562;2023-11-18T10:13:11;3.77;;;3.73;;
27802;SDS011;15182;48.174;11.562;2023-11-18T10:15:48;3.87;;;3.70;;
27802;SDS011;15182;48.174;11.562;2023-11-18T10:18:18;3.57;;;3.57;;
27802;SDS011;15182;48.174;11.562;2023-11-18T10:20:49;3.30;;;3.20;;
27802;SDS011;15182;48.174;11.562;2023-11-18T10:23:18;3.60;;;3.40;;
27802;SDS011;15182;48.174;11.562;2023-11-18T10:25:48;3.30;;;3.17;;
27802;SDS011;15182;48.174;11.562;2023-11-18T10:28:22;3.10;;;3.10;;
27802;SDS011;15182;48.174;11.562;2023-11-18T10:30:54;2.83;;;2.83;;
27802;SDS011;15182;48.174;11.562;2023-11-18T10:33:24;3.20;;;3.10;;
27802;SDS011;15182;48.174;11.562;2023-11-18T10:35:56;3.70;;;3.60;;
27802;SDS011;15182;48.174;11.562;2023-11-18T10:38:29;2.90;;;2.73;;
27802;SDS011;15182;48.174;11.562;2023-11-18T10:40:57;2.73;;;2.73;;
27802;SDS011;15182;48.174;11.562;2023-11-18T10:43:27;3.00;;;3.00;;
27802;SDS011;15182;48.174;11.562;2023-11-18T10:46:07;2.80;;;2.80;;
27802;SDS011;15182;48.174;11.562;2023-11-18T10:48:39;2.43;;;2.43;;
27802;SDS011;15182;48.174;11.562;2023-11-18T10:51:08;3.13;;;2.93;;
27802;SDS011;15182;48.174;11.562;2023-11-18T10:53:39;2.67;;;2.67;;
27802;SDS011;15182;48.174;11.562;2023-11-18T10:56:19;2.50;;;2.50;;
27802;SDS011;15182;48.174;11.562;2023-11-18T10:58:52;2.50;;;2.50;;
27802;SDS011;15182;48.174;11.562;2023-11-18T11:01:28;2.80;;;2.70;;
27802;SDS011;15182;48.174;11.562;2023-11-18T11:03:57;2.70;;;2.60;;
27802;SDS011;15182;48.174;11.562;2023-11-18T11:06:26;2.47;;;2.47;;
27802;SDS011;15182;48.174;11.562;2023-11-18T11:08:56;2.80;;;2.80;;
27802;SDS011;15182;48.174;11.562;2023-11-18T11:11:26;2.60;;;2.60;;
27802;SDS011;15182;48.174;11.562;2023-11-18T11:14:00;2.30;;;2.30;;
27802;SDS011;15182;48.174;11.562;2023-11-18T11:16:33;2.17;;;2.17;;
27802;SDS011;15182;48.174;11.562;2023-11-18T11:19:12;2.10;;;2.10;;
27802;SDS011;15182;48.174;11.562;2023-11-18T11:21:50;2.23;;;2.23;;
27802;SDS011;15182;48.174;11.562;2023-11-18T11:24:26;2.10;;;2.00;;
27802;SDS011;15182;48.174;11.562;2023-11-18T11:27:09;2.40;;;2.30;;
27802;SDS011;15182;48.174;11.562;2023-11-18T11:29:57;2.03;;;1.97;;
27802;SDS011;15182;48.174;11.562;2023-11-18T11:32:38;1.93;;;1.93;;
27802;SDS011;15182;48.174;11.562;2023-11-18T11:35:15;1.90;;;1.90;;
27802;SDS011;15182;48.174;11.562;2023-11-18T11:37:47;2.17;;;2.17;;
27802;SDS011;15182;48.174;11.562;2023-11-18T11:40:16;1.97;;;1.97;;
27802;SDS011;15182;48.174;11.562;2023-11-18T11:42:49;1.80;;;1.80;;
27802;SDS011;15182;48.174;11.562;2023-11-18T11:45:21;2.07;;;2.07;;
27802;SDS011;15182;48.174;11.562;2023-11-18T11:47:56;2.20;;;2.20;;
27802;SDS011;15182;48.174;11.562;2023-11-18T11:50:45;2.87;;;2.07;;
27802;SDS011;15182;48.174;11.562;2023-11-18T11:53:30;2.10;;;2.10;;
27802;SDS011;15182;48.174;11.562;2023-11-18T11:56:05;2.00;;;2.00;;
27802;SDS011;15182;48.174;11.562;2023-11-18T11:58:40;2.20;;;2.20;;
27802;SDS011;15182;48.174;11.562;2023-11-18T12:01:15;3.07;;;2.13;;
27802;SDS011;15182;48.174;11.562;2023-11-18T12:03:50;2.17;;;2.17;;
27802;SDS011;15182;48.174;11.562;2023-11-18T12:06:23;2.00;;;2.00;;
27802;SDS011;15182;48.174;11.562;2023-11-18T12:08:52;2.60;;;2.50;;
27802;SDS011;15182;48.174;11.562;2023-11-18T12:11:20;2.07;;;2.07;;
27802;SDS011;15182;48.174;11.562;2023-11-18T12:14:02;2.57;;;2.37;;
27802;SDS011;15182;48.174;11.562;2023-11-18T12:16:58;2.77;;;2.57;;
27802;SDS011;15182;48.174;11.562;2023-11-18T12:19:34;2.10;;;2.10;;
27802;SDS011;15182;48.174;11.562;2023-11-18T12:22:11;2.40;;;2.40;;
27802;SDS011;15182;48.174;11.562;2023-11-18T12:28:11;2.07;;;2.07;;
27802;SDS011;15182;48.174;11.562;2023-11-18T12:30:47;2.13;;;2.13;;
27802;SDS011;15182;48.174;11.562;2023-11-18T12:33:55;2.13;;;2.03;;
27802;SDS011;15182;48.174;11.562;2023-11-18T12:40:22;2.30;;;2.30;;
27802;SDS011;15182;48.174;11.562;2023-11-18T12:43:12;2.20;;;2.20;;
27802;SDS011;15182;48.174;11.562;2023-11-18T12:45:53;2.30;;;2.20;;
27802;SDS011;15182;48.174;11.562;2023-11-18T12:48:45;2.67;;;2.67;;
27802;SDS011;15182;48.174;11.562;2023-11-18T12:51:17;2.37;;;2.37;;
27802;SDS011;15182;48.174;11.562;2023-11-18T12:53:48;2.37;;;2.37;;
27802;SDS011;15182;48.174;11.562;2023-11-18T12:56:20;2.77;;;2.60;;
27802;SDS011;15182;48.174;11.562;2023-11-18T12:58:50;2.37;;;2.37;;
27802;SDS011;15182;48.174;11.562;2023-11-18T13:01:18;2.23;;;2.23;;
27802;SDS011;15182;48.174;11.562;2023-11-18T13:03:46;2.30;;;2.20;;
27802;SDS011;15182;48.174;11.562;2023-11-18T13:06:14;2.27;;;2.27;;
27802;SDS011;15182;48.174;11.562;2023-11-18T13:08:42;2.37;;;2.30;;
27802;SDS011;15182;48.174;11.562;2023-11-18T13:11:11;2.13;;;2.13;;
27802;SDS011;15182;48.174;11.562;2023-11-18T13:13:43;2.30;;;2.30;;
27802;SDS011;15182;48.174;11.562;2023-11-18T13:16:12;2.40;;;2.40;;
27802;SDS011;15182;48.174;11.562;2023-11-18T13:18:42;2.60;;;2.40;;
27802;SDS011;15182;48.174;11.562;2023-11-18T13:21:13;2.50;;;2.50;;
27802;SDS011;15182;48.174;11.562;2023-11-18T13:23:44;2.30;;;2.30;;
27802;SDS011;15182;48.174;11.562;2023-11-18T13:26:14;2.47;;;2.47;;
27802;SDS011;15182;48.174;11.562;2023-11-18T13:28:44;2.20;;;2.20;;
27802;SDS011;15182;48.174;11.562;2023-11-18T13:31:12;2.50;;;2.50;;
27802;SDS011;15182;48.174;11.562;2023-11-18T13:33:42;2.47;;;2.47;;
27802;SDS011;15182;48.174;11.562;2023-11-18T13:36:10;2.63;;;2.30;;
27802;SDS011;15182;48.174;11.562;2023-11-18T13:38:39;2.73;;;2.70;;
27802;SDS011;15182;48.174;11.562;2023-11-18T13:41:09;2.50;;;2.50;;
27802;SDS011;15182;48.174;11.562;2023-11-18T13:43:43;2.73;;;2.60;;
27802;SDS011;15182;48.174;11.562;2023-11-18T13:46:13;2.30;;;2.30;;
27802;SDS011;15182;48.174;11.562;2023-11-18T13:48:41;2.73;;;2.70;;
27802;SDS011;15182;48.174;11.562;2023-11-18T13:51:15;2.37;;;2.37;;
27802;SDS011;15182;48.174;11.562;2023-11-18T13:53:45;2.50;;;2.50;;
27802;SDS011;15182;48.174;11.562;2023-11-18T13:56:14;2.47;;;2.40;;
27802;SDS011;15182;48.174;11.562;2023-11-18T13:58:43;2.43;;;2.43;;
27802;SDS011;15182;48.174;11.562;2023-11-18T14:01:11;2.60;;;2.60;;
27802;SDS011;15182;48.174;11.562;2023-11-18T14:03:39;2.33;;;2.33;;
27802;SDS011;15182;48.174;11.562;2023-11-18T14:06:09;2.73;;;2.63;;
27802;SDS011;15182;48.174;11.562;2023-11-18T14:08:38;2.33;;;2.33;;
27802;SDS011;15182;48.174;11.562;2023-11-18T14:11:07;2.50;;;2.50;;
27802;SDS011;15182;48.174;11.562;2023-11-18T14:13:35;2.50;;;2.40;;
27802;SDS011;15182;48.174;11.562;2023-11-18T14:16:05;2.63;;;2.53;;
27802;SDS011;15182;48.174;11.562;2023-11-18T14:18:35;2.80;;;2.70;;
27802;SDS011;15182;48.174;11.562;2023-11-18T14:21:03;2.73;;;2.53;;
27802;SDS011;15182;48.174;11.562;2023-11-18T14:23:31;2.47;;;2.47;;
27802;SDS011;15182;48.174;11.562;2023-11-18T14:25:59;2.50;;;2.40;;
27802;SDS011;15182;48.174;11.562;2023-11-18T14:28:27;3.10;;;2.90;;
27802;SDS011;15182;48.174;11.562;2023-11-18T14:30:55;2.20;;;2.20;;
27802;SDS011;15182;48.174;11.562;2023-11-18T14:33:25;2.50;;;2.50;;
27802;SDS011;15182;48.174;11.562;2023-11-18T14:35:54;2.93;;;2.93;;
27802;SDS011;15182;48.174;11.562;2023-11-18T14:38:22;2.47;;;2.37;;
27802;SDS011;15182;48.174;11.562;2023-11-18T14:40:50;2.47;;;2.47;;
27802;SDS011;15182;48.174;11.562;2023-11-18T14:43:19;2.23;;;2.23;;
27802;SDS011;15182;48.174;11.562;2023-11-18T14:45:47;2.53;;;2.53;;
27802;SDS011;15182;48.174;11.562;2023-11-18T14:48:15;2.60;;;2.60;;
27802;SDS011;15182;48.174;11.562;2023-11-18T14:50:44;2.43;;;2.43;;
27802;SDS011;15182;48.174;11.562;2023-11-18T14:53:12;2.40;;;2.40;;
27802;SDS011;15182;48.174;11.562;2023-11-18T14:55:40;2.37;;;2.37;;
27802;SDS011;15182;48.174;11.562;2023-11-18T14:58:09;2.43;;;2.33;;
27802;SDS011;15182;48.174;11.562;2023-11-18T15:00:37;2.73;;;2.30;;